sensor_id;sensor_type;location;lat;lon;timestamp;P1;durP1;ratioP1;P2;durP2;ratioP2
54247;SDS011;40161;39.768;2.722;2022-12-11T00:00:50;20.90;;;12.82;;
54247;SDS011;40161;39.768;2.722;2022-12-11T00:03:16;21.55;;;13.38;;
54247;SDS011;40161;39.768;2.722;2022-12-11T00:05:42;21.30;;;13.23;;
54247;SDS011;40161;39.768;2.722;2022-12-11T00:08:09;20.25;;;13.60;;
54247;SDS011;40161;39.768;2.722;2022-12-11T00:10:35;20.17;;;13.05;;
54247;SDS011;40161;39.768;2.722;2022-12-11T00:13:01;21.52;;;14.70;;
54247;SDS011;40161;39.768;2.722;2022-12-11T00:15:27;23.40;;;16.48;;
54247;SDS011;40161;39.768;2.722;2022-12-11T00:17:54;29.75;;;19.30;;
54247;SDS011;40161;39.768;2.722;2022-12-11T00:20:20;39.80;;;27.63;;
54247;SDS011;40161;39.768;2.722;2022-12-11T00:22:45;44.65;;;33.30;;
54247;SDS011;40161;39.768;2.722;2022-12-11T00:25:11;31.10;;;22.55;;
54247;SDS011;40161;39.768;2.722;2022-12-11T00:27:37;27.98;;;19.02;;
54247;SDS011;40161;39.768;2.722;2022-12-11T00:30:03;33.95;;;23.05;;
54247;SDS011;40161;39.768;2.722;2022-12-11T00:32:29;45.42;;;32.78;;
54247;SDS011;40161;39.768;2.722;2022-12-11T00:34:56;34.45;;;25.55;;
54247;SDS011;40161;39.768;2.722;2022-12-11T00:37:21;29.00;;;18.40;;
54247;SDS011;40161;39.768;2.722;2022-12-11T00:39:47;24.63;;;17.08;;
54247;SDS011;40161;39.768;2.722;2022-12-11T00:42:12;22.30;;;16.42;;
54247;SDS011;40161;39.768;2.722;2022-12-11T00:44:38;22.40;;;19.13;;
54247;SDS011;40161;39.768;2.722;2022-12-11T00:47:03;20.67;;;14.55;;
54247;SDS011;40161;39.768;2.722;2022-12-11T00:49:29;21.42;;;13.23;;
54247;SDS011;40161;39.768;2.722;2022-12-11T00:51:54;18.90;;;12.43;;
54247;SDS011;40161;39.768;2.722;2022-12-11T00:54:20;20.88;;;13.02;;
54247;SDS011;40161;39.768;2.722;2022-12-11T00:56:46;20.63;;;13.57;;
54247;SDS011;40161;39.768;2.722;2022-12-11T00:59:11;18.83;;;11.85;;
54247;SDS011;40161;39.768;2.722;2022-12-11T01:01:37;19.48;;;11.25;;
54247;SDS011;40161;39.768;2.722;2022-12-11T01:04:03;15.63;;;10.32;;
54247;SDS011;40161;39.768;2.722;2022-12-11T01:06:29;16.08;;;10.60;;
54247;SDS011;40161;39.768;2.722;2022-12-11T01:08:55;16.75;;;11.20;;
54247;SDS011;40161;39.768;2.722;2022-12-11T01:11:40;16.45;;;10.55;;
54247;SDS011;40161;39.768;2.722;2022-12-11T01:14:07;15.98;;;10.43;;
54247;SDS011;40161;39.768;2.722;2022-12-11T01:16:33;15.32;;;10.07;;
54247;SDS011;40161;39.768;2.722;2022-12-11T01:18:59;17.95;;;11.55;;
54247;SDS011;40161;39.768;2.722;2022-12-11T01:21:24;16.38;;;11.43;;
54247;SDS011;40161;39.768;2.722;2022-12-11T01:23:50;20.25;;;13.77;;
54247;SDS011;40161;39.768;2.722;2022-12-11T01:26:16;21.88;;;15.63;;
54247;SDS011;40161;39.768;2.722;2022-12-11T01:28:42;18.75;;;12.82;;
54247;SDS011;40161;39.768;2.722;2022-12-11T01:31:09;21.13;;;12.63;;
54247;SDS011;40161;39.768;2.722;2022-12-11T01:33:36;22.60;;;15.10;;
54247;SDS011;40161;39.768;2.722;2022-12-11T01:36:07;20.30;;;13.68;;
54247;SDS011;40161;39.768;2.722;2022-12-11T01:38:38;20.13;;;12.38;;
54247;SDS011;40161;39.768;2.722;2022-12-11T01:41:03;20.35;;;13.38;;
54247;SDS011;40161;39.768;2.722;2022-12-11T01:43:29;21.23;;;13.43;;
54247;SDS011;40161;39.768;2.722;2022-12-11T01:45:55;21.13;;;12.52;;
54247;SDS011;40161;39.768;2.722;2022-12-11T01:48:22;17.77;;;11.80;;
54247;SDS011;40161;39.768;2.722;2022-12-11T01:50:50;19.77;;;12.20;;
54247;SDS011;40161;39.768;2.722;2022-12-11T01:53:19;18.85;;;11.95;;
54247;SDS011;40161;39.768;2.722;2022-12-11T01:55:50;15.57;;;10.73;;
54247;SDS011;40161;39.768;2.722;2022-12-11T01:58:19;16.83;;;10.68;;
54247;SDS011;40161;39.768;2.722;2022-12-11T02:00:48;16.40;;;10.43;;
54247;SDS011;40161;39.768;2.722;2022-12-11T02:03:17;19.13;;;10.88;;
54247;SDS011;40161;39.768;2.722;2022-12-11T02:05:42;18.88;;;12.05;;
54247;SDS011;40161;39.768;2.722;2022-12-11T02:08:08;16.42;;;11.07;;
54247;SDS011;40161;39.768;2.722;2022-12-11T02:10:48;17.63;;;11.10;;
54247;SDS011;40161;39.768;2.722;2022-12-11T02:13:33;17.35;;;10.80;;
54247;SDS011;40161;39.768;2.722;2022-12-11T02:16:18;17.38;;;10.18;;
54247;SDS011;40161;39.768;2.722;2022-12-11T02:18:58;16.90;;;10.60;;
54247;SDS011;40161;39.768;2.722;2022-12-11T02:21:27;12.80;;;8.45;;
54247;SDS011;40161;39.768;2.722;2022-12-11T02:30:03;10.55;;;6.05;;
54247;SDS011;40161;39.768;2.722;2022-12-11T02:32:52;12.57;;;5.78;;
54247;SDS011;40161;39.768;2.722;2022-12-11T02:35:21;10.73;;;5.65;;
54247;SDS011;40161;39.768;2.722;2022-12-11T02:37:56;12.45;;;5.75;;
54247;SDS011;40161;39.768;2.722;2022-12-11T02:40:26;10.88;;;5.22;;
54247;SDS011;40161;39.768;2.722;2022-12-11T02:42:54;11.02;;;5.88;;
54247;SDS011;40161;39.768;2.722;2022-12-11T02:45:23;12.18;;;5.03;;
54247;SDS011;40161;39.768;2.722;2022-12-11T02:47:51;14.20;;;4.88;;
54247;SDS011;40161;39.768;2.722;2022-12-11T02:50:18;9.80;;;4.45;;
54247;SDS011;40161;39.768;2.722;2022-12-11T02:52:45;9.30;;;4.57;;
54247;SDS011;40161;39.768;2.722;2022-12-11T02:55:14;7.00;;;4.07;;
54247;SDS011;40161;39.768;2.722;2022-12-11T02:57:47;7.18;;;3.95;;
54247;SDS011;40161;39.768;2.722;2022-12-11T03:00:14;12.73;;;4.82;;
54247;SDS011;40161;39.768;2.722;2022-12-11T03:02:41;10.00;;;4.35;;
54247;SDS011;40161;39.768;2.722;2022-12-11T03:05:07;9.80;;;4.72;;
54247;SDS011;40161;39.768;2.722;2022-12-11T03:07:35;8.77;;;4.85;;
54247;SDS011;40161;39.768;2.722;2022-12-11T03:10:04;9.32;;;4.50;;
54247;SDS011;40161;39.768;2.722;2022-12-11T03:12:31;9.63;;;4.30;;
54247;SDS011;40161;39.768;2.722;2022-12-11T03:15:01;8.48;;;3.95;;
54247;SDS011;40161;39.768;2.722;2022-12-11T03:17:31;6.82;;;3.25;;
54247;SDS011;40161;39.768;2.722;2022-12-11T03:20:06;6.72;;;2.65;;
54247;SDS011;40161;39.768;2.722;2022-12-11T03:22:47;7.43;;;3.30;;
54247;SDS011;40161;39.768;2.722;2022-12-11T03:25:35;4.70;;;2.42;;
54247;SDS011;40161;39.768;2.722;2022-12-11T03:28:08;5.47;;;2.58;;
54247;SDS011;40161;39.768;2.722;2022-12-11T03:30:37;9.30;;;3.80;;
54247;SDS011;40161;39.768;2.722;2022-12-11T03:33:15;10.48;;;3.58;;
54247;SDS011;40161;39.768;2.722;2022-12-11T03:35:51;10.70;;;3.50;;
54247;SDS011;40161;39.768;2.722;2022-12-11T03:38:25;6.63;;;2.78;;
54247;SDS011;40161;39.768;2.722;2022-12-11T03:40:53;7.32;;;2.70;;
54247;SDS011;40161;39.768;2.722;2022-12-11T03:43:22;8.38;;;2.70;;
54247;SDS011;40161;39.768;2.722;2022-12-11T03:45:49;6.40;;;2.90;;
54247;SDS011;40161;39.768;2.722;2022-12-11T03:48:17;5.93;;;2.70;;
54247;SDS011;40161;39.768;2.722;2022-12-11T03:50:45;5.97;;;2.72;;
54247;SDS011;40161;39.768;2.722;2022-12-11T03:53:12;5.82;;;2.40;;
54247;SDS011;40161;39.768;2.722;2022-12-11T03:55:37;6.07;;;2.45;;
54247;SDS011;40161;39.768;2.722;2022-12-11T03:58:04;4.90;;;2.30;;
54247;SDS011;40161;39.768;2.722;2022-12-11T04:00:29;9.48;;;3.15;;
54247;SDS011;40161;39.768;2.722;2022-12-11T04:02:55;6.38;;;2.60;;
54247;SDS011;40161;39.768;2.722;2022-12-11T04:12:23;5.50;;;2.28;;
54247;SDS011;40161;39.768;2.722;2022-12-11T04:18:19;5.75;;;2.05;;
54247;SDS011;40161;39.768;2.722;2022-12-11T04:30:35;4.95;;;1.70;;
54247;SDS011;40161;39.768;2.722;2022-12-11T04:33:01;6.22;;;1.60;;
54247;SDS011;40161;39.768;2.722;2022-12-11T04:35:27;6.53;;;1.80;;
54247;SDS011;40161;39.768;2.722;2022-12-11T04:41:14;3.83;;;1.50;;
54247;SDS011;40161;39.768;2.722;2022-12-11T04:43:41;5.55;;;1.88;;
54247;SDS011;40161;39.768;2.722;2022-12-11T04:48:36;5.05;;;1.65;;
54247;SDS011;40161;39.768;2.722;2022-12-11T04:51:03;3.95;;;1.75;;
54247;SDS011;40161;39.768;2.722;2022-12-11T04:53:29;3.67;;;1.48;;
54247;SDS011;40161;39.768;2.722;2022-12-11T04:55:55;7.68;;;1.98;;
54247;SDS011;40161;39.768;2.722;2022-12-11T04:58:21;4.68;;;1.30;;
54247;SDS011;40161;39.768;2.722;2022-12-11T05:00:48;6.07;;;1.50;;
54247;SDS011;40161;39.768;2.722;2022-12-11T05:03:14;3.47;;;1.17;;
54247;SDS011;40161;39.768;2.722;2022-12-11T05:05:40;6.88;;;1.58;;
54247;SDS011;40161;39.768;2.722;2022-12-11T05:08:05;5.57;;;1.60;;
54247;SDS011;40161;39.768;2.722;2022-12-11T05:10:32;5.72;;;2.00;;
54247;SDS011;40161;39.768;2.722;2022-12-11T05:12:57;5.28;;;1.95;;
54247;SDS011;40161;39.768;2.722;2022-12-11T05:15:23;6.15;;;1.80;;
54247;SDS011;40161;39.768;2.722;2022-12-11T05:17:48;3.67;;;1.30;;
54247;SDS011;40161;39.768;2.722;2022-12-11T05:20:14;4.80;;;1.30;;
54247;SDS011;40161;39.768;2.722;2022-12-11T05:22:39;5.47;;;1.20;;
54247;SDS011;40161;39.768;2.722;2022-12-11T05:25:05;4.82;;;1.15;;
54247;SDS011;40161;39.768;2.722;2022-12-11T05:27:31;5.40;;;1.60;;
54247;SDS011;40161;39.768;2.722;2022-12-11T05:29:57;3.95;;;1.10;;
54247;SDS011;40161;39.768;2.722;2022-12-11T05:32:23;4.45;;;0.90;;
54247;SDS011;40161;39.768;2.722;2022-12-11T05:34:49;4.20;;;1.15;;
54247;SDS011;40161;39.768;2.722;2022-12-11T05:37:14;4.32;;;1.10;;
54247;SDS011;40161;39.768;2.722;2022-12-11T05:39:40;5.38;;;1.20;;
54247;SDS011;40161;39.768;2.722;2022-12-11T05:42:06;4.13;;;1.23;;
54247;SDS011;40161;39.768;2.722;2022-12-11T05:44:32;5.53;;;1.60;;
54247;SDS011;40161;39.768;2.722;2022-12-11T05:46:57;5.15;;;1.40;;
54247;SDS011;40161;39.768;2.722;2022-12-11T05:49:23;4.18;;;1.63;;
54247;SDS011;40161;39.768;2.722;2022-12-11T05:51:48;4.22;;;1.45;;
54247;SDS011;40161;39.768;2.722;2022-12-11T05:54:15;3.15;;;1.50;;
54247;SDS011;40161;39.768;2.722;2022-12-11T05:56:41;6.72;;;2.00;;
54247;SDS011;40161;39.768;2.722;2022-12-11T05:59:06;13.60;;;4.13;;
54247;SDS011;40161;39.768;2.722;2022-12-11T06:01:33;12.60;;;3.85;;
54247;SDS011;40161;39.768;2.722;2022-12-11T06:04:03;11.32;;;2.88;;
54247;SDS011;40161;39.768;2.722;2022-12-11T06:06:30;6.10;;;2.22;;
54247;SDS011;40161;39.768;2.722;2022-12-11T06:08:57;5.72;;;2.10;;
54247;SDS011;40161;39.768;2.722;2022-12-11T06:11:25;5.80;;;1.90;;
54247;SDS011;40161;39.768;2.722;2022-12-11T06:13:52;6.00;;;2.10;;
54247;SDS011;40161;39.768;2.722;2022-12-11T06:16:19;7.25;;;2.70;;
54247;SDS011;40161;39.768;2.722;2022-12-11T06:18:45;7.35;;;2.35;;
54247;SDS011;40161;39.768;2.722;2022-12-11T06:21:27;6.68;;;2.78;;
54247;SDS011;40161;39.768;2.722;2022-12-11T06:23:58;7.15;;;2.70;;
54247;SDS011;40161;39.768;2.722;2022-12-11T06:26:26;5.78;;;2.35;;
54247;SDS011;40161;39.768;2.722;2022-12-11T06:28:53;6.30;;;2.22;;
54247;SDS011;40161;39.768;2.722;2022-12-11T06:31:18;11.18;;;2.83;;
54247;SDS011;40161;39.768;2.722;2022-12-11T06:33:44;7.15;;;3.08;;
54247;SDS011;40161;39.768;2.722;2022-12-11T06:36:12;7.60;;;3.00;;
54247;SDS011;40161;39.768;2.722;2022-12-11T06:38:39;14.25;;;3.63;;
54247;SDS011;40161;39.768;2.722;2022-12-11T06:41:05;9.27;;;3.17;;
54247;SDS011;40161;39.768;2.722;2022-12-11T06:43:32;30.52;;;24.35;;
54247;SDS011;40161;39.768;2.722;2022-12-11T06:46:01;14.38;;;6.13;;
54247;SDS011;40161;39.768;2.722;2022-12-11T06:48:28;6.70;;;2.95;;
54247;SDS011;40161;39.768;2.722;2022-12-11T06:50:53;7.93;;;3.33;;
54247;SDS011;40161;39.768;2.722;2022-12-11T06:53:19;6.57;;;2.50;;
54247;SDS011;40161;39.768;2.722;2022-12-11T06:55:44;8.40;;;3.33;;
54247;SDS011;40161;39.768;2.722;2022-12-11T06:58:10;12.93;;;4.30;;
54247;SDS011;40161;39.768;2.722;2022-12-11T07:00:36;7.13;;;3.10;;
54247;SDS011;40161;39.768;2.722;2022-12-11T07:03:03;8.65;;;2.72;;
54247;SDS011;40161;39.768;2.722;2022-12-11T07:05:29;6.82;;;2.88;;
54247;SDS011;40161;39.768;2.722;2022-12-11T07:07:55;5.25;;;2.45;;
54247;SDS011;40161;39.768;2.722;2022-12-11T07:10:22;7.65;;;2.80;;
54247;SDS011;40161;39.768;2.722;2022-12-11T07:12:48;5.88;;;2.72;;
54247;SDS011;40161;39.768;2.722;2022-12-11T07:15:14;5.20;;;2.50;;
54247;SDS011;40161;39.768;2.722;2022-12-11T07:17:39;6.70;;;2.72;;
54247;SDS011;40161;39.768;2.722;2022-12-11T07:20:05;6.13;;;2.65;;
54247;SDS011;40161;39.768;2.722;2022-12-11T07:22:31;7.05;;;3.25;;
54247;SDS011;40161;39.768;2.722;2022-12-11T07:24:56;7.90;;;3.08;;
54247;SDS011;40161;39.768;2.722;2022-12-11T07:27:22;9.10;;;3.55;;
54247;SDS011;40161;39.768;2.722;2022-12-11T07:29:49;8.70;;;3.00;;
54247;SDS011;40161;39.768;2.722;2022-12-11T07:32:14;7.68;;;3.33;;
54247;SDS011;40161;39.768;2.722;2022-12-11T07:34:42;22.52;;;13.23;;
54247;SDS011;40161;39.768;2.722;2022-12-11T07:37:08;13.02;;;6.45;;
54247;SDS011;40161;39.768;2.722;2022-12-11T07:39:33;8.27;;;4.47;;
54247;SDS011;40161;39.768;2.722;2022-12-11T07:41:59;6.45;;;3.40;;
54247;SDS011;40161;39.768;2.722;2022-12-11T07:44:24;8.15;;;3.55;;
54247;SDS011;40161;39.768;2.722;2022-12-11T07:46:50;6.57;;;3.38;;
54247;SDS011;40161;39.768;2.722;2022-12-11T07:49:16;8.50;;;6.85;;
54247;SDS011;40161;39.768;2.722;2022-12-11T07:51:41;10.65;;;7.30;;
54247;SDS011;40161;39.768;2.722;2022-12-11T07:54:09;10.73;;;6.43;;
54247;SDS011;40161;39.768;2.722;2022-12-11T07:56:38;8.63;;;6.10;;
54247;SDS011;40161;39.768;2.722;2022-12-11T07:59:04;7.43;;;5.75;;
54247;SDS011;40161;39.768;2.722;2022-12-11T08:01:31;10.20;;;8.38;;
54247;SDS011;40161;39.768;2.722;2022-12-11T08:03:59;11.52;;;8.65;;
54247;SDS011;40161;39.768;2.722;2022-12-11T08:06:29;12.88;;;8.07;;
54247;SDS011;40161;39.768;2.722;2022-12-11T08:08:56;10.77;;;5.88;;
54247;SDS011;40161;39.768;2.722;2022-12-11T08:11:23;8.52;;;4.80;;
54247;SDS011;40161;39.768;2.722;2022-12-11T08:13:49;6.88;;;4.10;;
54247;SDS011;40161;39.768;2.722;2022-12-11T08:16:15;7.88;;;4.55;;
54247;SDS011;40161;39.768;2.722;2022-12-11T08:18:43;9.90;;;4.22;;
54247;SDS011;40161;39.768;2.722;2022-12-11T08:21:10;10.40;;;4.82;;
54247;SDS011;40161;39.768;2.722;2022-12-11T08:23:38;9.77;;;5.65;;
54247;SDS011;40161;39.768;2.722;2022-12-11T08:26:04;8.15;;;5.05;;
54247;SDS011;40161;39.768;2.722;2022-12-11T08:28:34;12.27;;;6.20;;
54247;SDS011;40161;39.768;2.722;2022-12-11T08:31:02;13.38;;;8.27;;
54247;SDS011;40161;39.768;2.722;2022-12-11T08:33:28;12.43;;;7.18;;
54247;SDS011;40161;39.768;2.722;2022-12-11T08:35:54;9.73;;;5.55;;
54247;SDS011;40161;39.768;2.722;2022-12-11T08:38:19;11.13;;;5.65;;
54247;SDS011;40161;39.768;2.722;2022-12-11T08:40:45;8.43;;;4.93;;
54247;SDS011;40161;39.768;2.722;2022-12-11T08:43:10;8.82;;;4.10;;
54247;SDS011;40161;39.768;2.722;2022-12-11T08:45:36;7.22;;;3.67;;
54247;SDS011;40161;39.768;2.722;2022-12-11T08:48:04;6.88;;;3.67;;
54247;SDS011;40161;39.768;2.722;2022-12-11T08:50:29;6.40;;;3.20;;
54247;SDS011;40161;39.768;2.722;2022-12-11T08:52:55;6.80;;;3.55;;
54247;SDS011;40161;39.768;2.722;2022-12-11T08:55:21;8.48;;;4.60;;
54247;SDS011;40161;39.768;2.722;2022-12-11T08:57:47;9.90;;;6.20;;
54247;SDS011;40161;39.768;2.722;2022-12-11T09:00:12;12.98;;;7.07;;
54247;SDS011;40161;39.768;2.722;2022-12-11T09:02:39;9.77;;;6.90;;
54247;SDS011;40161;39.768;2.722;2022-12-11T09:05:05;11.55;;;6.30;;
54247;SDS011;40161;39.768;2.722;2022-12-11T09:07:33;11.75;;;6.72;;
54247;SDS011;40161;39.768;2.722;2022-12-11T09:10:00;10.40;;;6.95;;
54247;SDS011;40161;39.768;2.722;2022-12-11T09:12:26;11.52;;;7.00;;
54247;SDS011;40161;39.768;2.722;2022-12-11T09:14:52;13.75;;;7.15;;
54247;SDS011;40161;39.768;2.722;2022-12-11T09:17:18;11.68;;;7.13;;
54247;SDS011;40161;39.768;2.722;2022-12-11T09:19:44;10.88;;;6.15;;
54247;SDS011;40161;39.768;2.722;2022-12-11T09:22:10;12.88;;;7.10;;
54247;SDS011;40161;39.768;2.722;2022-12-11T09:24:36;12.07;;;6.15;;
54247;SDS011;40161;39.768;2.722;2022-12-11T09:27:03;8.52;;;4.75;;
54247;SDS011;40161;39.768;2.722;2022-12-11T09:29:29;11.00;;;5.88;;
54247;SDS011;40161;39.768;2.722;2022-12-11T09:31:54;9.70;;;5.70;;
54247;SDS011;40161;39.768;2.722;2022-12-11T09:34:20;13.05;;;6.57;;
54247;SDS011;40161;39.768;2.722;2022-12-11T09:36:46;10.38;;;5.50;;
54247;SDS011;40161;39.768;2.722;2022-12-11T09:39:12;10.45;;;6.05;;
54247;SDS011;40161;39.768;2.722;2022-12-11T09:44:23;9.93;;;6.30;;
54247;SDS011;40161;39.768;2.722;2022-12-11T09:46:56;10.80;;;6.05;;
54247;SDS011;40161;39.768;2.722;2022-12-11T09:52:11;9.37;;;5.40;;
54247;SDS011;40161;39.768;2.722;2022-12-11T09:54:52;9.75;;;3.70;;
54247;SDS011;40161;39.768;2.722;2022-12-11T09:57:30;6.80;;;2.75;;
54247;SDS011;40161;39.768;2.722;2022-12-11T10:06:20;6.28;;;1.90;;
54247;SDS011;40161;39.768;2.722;2022-12-11T10:11:42;5.47;;;2.30;;
54247;SDS011;40161;39.768;2.722;2022-12-11T10:16:57;6.90;;;3.22;;
54247;SDS011;40161;39.768;2.722;2022-12-11T10:20:18;8.77;;;3.78;;
54247;SDS011;40161;39.768;2.722;2022-12-11T10:22:47;6.38;;;3.45;;
54247;SDS011;40161;39.768;2.722;2022-12-11T10:25:23;7.40;;;3.83;;
54247;SDS011;40161;39.768;2.722;2022-12-11T10:27:52;8.57;;;4.70;;
54247;SDS011;40161;39.768;2.722;2022-12-11T10:30:24;8.48;;;4.38;;
54247;SDS011;40161;39.768;2.722;2022-12-11T10:36:07;8.32;;;3.80;;
54247;SDS011;40161;39.768;2.722;2022-12-11T10:38:39;10.43;;;3.92;;
54247;SDS011;40161;39.768;2.722;2022-12-11T10:41:10;9.20;;;3.92;;
54247;SDS011;40161;39.768;2.722;2022-12-11T10:43:41;10.60;;;5.35;;
54247;SDS011;40161;39.768;2.722;2022-12-11T10:51:12;9.13;;;5.43;;
54247;SDS011;40161;39.768;2.722;2022-12-11T10:53:38;10.15;;;5.70;;
54247;SDS011;40161;39.768;2.722;2022-12-11T10:56:04;11.35;;;5.68;;
54247;SDS011;40161;39.768;2.722;2022-12-11T10:58:31;12.23;;;6.45;;
54247;SDS011;40161;39.768;2.722;2022-12-11T11:01:04;12.88;;;8.98;;
54247;SDS011;40161;39.768;2.722;2022-12-11T11:03:32;16.95;;;12.07;;
54247;SDS011;40161;39.768;2.722;2022-12-11T11:06:15;11.55;;;7.32;;
54247;SDS011;40161;39.768;2.722;2022-12-11T11:08:42;12.30;;;9.23;;
54247;SDS011;40161;39.768;2.722;2022-12-11T11:11:20;12.83;;;9.60;;
54247;SDS011;40161;39.768;2.722;2022-12-11T11:16:46;8.70;;;6.32;;
54247;SDS011;40161;39.768;2.722;2022-12-11T11:19:34;10.32;;;5.90;;
54247;SDS011;40161;39.768;2.722;2022-12-11T11:22:07;12.32;;;6.45;;
54247;SDS011;40161;39.768;2.722;2022-12-11T11:24:52;16.67;;;9.87;;
54247;SDS011;40161;39.768;2.722;2022-12-11T11:30:00;14.40;;;8.38;;
54247;SDS011;40161;39.768;2.722;2022-12-11T11:37:38;10.80;;;8.25;;
54247;SDS011;40161;39.768;2.722;2022-12-11T11:40:18;8.60;;;5.60;;
54247;SDS011;40161;39.768;2.722;2022-12-11T11:45:45;19.40;;;16.35;;
54247;SDS011;40161;39.768;2.722;2022-12-11T11:51:31;13.38;;;9.43;;
54247;SDS011;40161;39.768;2.722;2022-12-11T11:54:00;15.15;;;9.90;;
54247;SDS011;40161;39.768;2.722;2022-12-11T11:56:32;27.08;;;14.75;;
54247;SDS011;40161;39.768;2.722;2022-12-11T11:59:46;23.45;;;14.15;;
54247;SDS011;40161;39.768;2.722;2022-12-11T12:01:58;23.65;;;15.77;;
54247;SDS011;40161;39.768;2.722;2022-12-11T12:04:24;22.60;;;13.38;;
54247;SDS011;40161;39.768;2.722;2022-12-11T12:07:03;17.95;;;12.32;;
54247;SDS011;40161;39.768;2.722;2022-12-11T12:12:28;20.77;;;13.13;;
54247;SDS011;40161;39.768;2.722;2022-12-11T12:15:32;18.83;;;13.32;;
54247;SDS011;40161;39.768;2.722;2022-12-11T12:21:05;24.08;;;18.85;;
54247;SDS011;40161;39.768;2.722;2022-12-11T12:34:38;14.77;;;10.82;;
54247;SDS011;40161;39.768;2.722;2022-12-11T12:47:42;13.90;;;11.57;;
54247;SDS011;40161;39.768;2.722;2022-12-11T12:50:17;6.82;;;5.43;;
54247;SDS011;40161;39.768;2.722;2022-12-11T12:52:46;5.75;;;3.53;;
54247;SDS011;40161;39.768;2.722;2022-12-11T13:00:28;8.38;;;4.05;;
54247;SDS011;40161;39.768;2.722;2022-12-11T13:02:54;7.45;;;4.15;;
54247;SDS011;40161;39.768;2.722;2022-12-11T13:05:29;8.55;;;4.00;;
54247;SDS011;40161;39.768;2.722;2022-12-11T13:07:59;25.92;;;19.25;;
54247;SDS011;40161;39.768;2.722;2022-12-11T13:10:31;14.90;;;11.80;;
54247;SDS011;40161;39.768;2.722;2022-12-11T13:13:04;14.00;;;10.40;;
54247;SDS011;40161;39.768;2.722;2022-12-11T13:15:50;13.25;;;7.85;;
54247;SDS011;40161;39.768;2.722;2022-12-11T13:18:35;10.90;;;7.68;;
54247;SDS011;40161;39.768;2.722;2022-12-11T13:21:26;8.80;;;5.70;;
54247;SDS011;40161;39.768;2.722;2022-12-11T13:26:38;8.90;;;6.50;;
54247;SDS011;40161;39.768;2.722;2022-12-11T13:29:05;10.63;;;7.18;;
54247;SDS011;40161;39.768;2.722;2022-12-11T13:31:55;10.40;;;6.82;;
54247;SDS011;40161;39.768;2.722;2022-12-11T13:34:27;9.50;;;6.70;;
54247;SDS011;40161;39.768;2.722;2022-12-11T13:36:57;10.82;;;6.60;;
54247;SDS011;40161;39.768;2.722;2022-12-11T13:39:24;9.38;;;6.00;;
54247;SDS011;40161;39.768;2.722;2022-12-11T13:42:02;11.40;;;7.97;;
54247;SDS011;40161;39.768;2.722;2022-12-11T13:44:33;10.93;;;7.70;;
54247;SDS011;40161;39.768;2.722;2022-12-11T13:47:03;10.18;;;6.55;;
54247;SDS011;40161;39.768;2.722;2022-12-11T13:49:35;8.95;;;5.63;;
54247;SDS011;40161;39.768;2.722;2022-12-11T13:52:04;8.10;;;5.32;;
54247;SDS011;40161;39.768;2.722;2022-12-11T13:54:31;9.02;;;5.18;;
54247;SDS011;40161;39.768;2.722;2022-12-11T13:59:33;9.25;;;6.18;;
54247;SDS011;40161;39.768;2.722;2022-12-11T14:02:22;9.48;;;6.07;;
54247;SDS011;40161;39.768;2.722;2022-12-11T14:04:50;10.38;;;6.88;;
54247;SDS011;40161;39.768;2.722;2022-12-11T14:07:31;10.68;;;8.43;;
54247;SDS011;40161;39.768;2.722;2022-12-11T14:10:04;10.95;;;8.23;;
54247;SDS011;40161;39.768;2.722;2022-12-11T14:12:33;10.60;;;7.03;;
54247;SDS011;40161;39.768;2.722;2022-12-11T14:15:01;11.73;;;8.48;;
54247;SDS011;40161;39.768;2.722;2022-12-11T14:17:29;10.70;;;8.27;;
54247;SDS011;40161;39.768;2.722;2022-12-11T14:19:58;10.73;;;8.30;;
54247;SDS011;40161;39.768;2.722;2022-12-11T14:22:27;10.65;;;7.25;;
54247;SDS011;40161;39.768;2.722;2022-12-11T14:24:55;13.27;;;9.50;;
54247;SDS011;40161;39.768;2.722;2022-12-11T14:27:28;10.32;;;7.75;;
54247;SDS011;40161;39.768;2.722;2022-12-11T14:29:54;13.80;;;10.48;;
54247;SDS011;40161;39.768;2.722;2022-12-11T14:32:35;11.73;;;8.90;;
54247;SDS011;40161;39.768;2.722;2022-12-11T14:35:12;13.30;;;9.80;;
54247;SDS011;40161;39.768;2.722;2022-12-11T14:37:47;10.55;;;7.50;;
54247;SDS011;40161;39.768;2.722;2022-12-11T14:40:16;11.57;;;8.20;;
54247;SDS011;40161;39.768;2.722;2022-12-11T14:43:05;12.00;;;8.20;;
54247;SDS011;40161;39.768;2.722;2022-12-11T14:45:41;13.40;;;10.35;;
54247;SDS011;40161;39.768;2.722;2022-12-11T14:48:18;18.25;;;13.43;;
54247;SDS011;40161;39.768;2.722;2022-12-11T14:50:48;19.30;;;14.48;;
54247;SDS011;40161;39.768;2.722;2022-12-11T14:55:52;21.15;;;15.40;;
54247;SDS011;40161;39.768;2.722;2022-12-11T14:58:23;19.00;;;13.55;;
54247;SDS011;40161;39.768;2.722;2022-12-11T15:01:03;17.45;;;12.80;;
54247;SDS011;40161;39.768;2.722;2022-12-11T15:03:46;18.77;;;13.23;;
54247;SDS011;40161;39.768;2.722;2022-12-11T15:06:22;16.38;;;11.55;;
54247;SDS011;40161;39.768;2.722;2022-12-11T15:08:54;15.18;;;10.38;;
54247;SDS011;40161;39.768;2.722;2022-12-11T15:11:20;14.98;;;11.07;;
54247;SDS011;40161;39.768;2.722;2022-12-11T15:13:54;14.23;;;11.15;;
54247;SDS011;40161;39.768;2.722;2022-12-11T15:16:25;14.73;;;10.27;;
54247;SDS011;40161;39.768;2.722;2022-12-11T15:18:55;18.45;;;13.15;;
54247;SDS011;40161;39.768;2.722;2022-12-11T15:21:29;39.20;;;33.10;;
54247;SDS011;40161;39.768;2.722;2022-12-11T15:23:57;28.00;;;19.08;;
54247;SDS011;40161;39.768;2.722;2022-12-11T15:29:05;36.78;;;28.55;;
54247;SDS011;40161;39.768;2.722;2022-12-11T15:31:57;68.00;;;52.30;;
54247;SDS011;40161;39.768;2.722;2022-12-11T15:34:41;61.42;;;48.47;;
54247;SDS011;40161;39.768;2.722;2022-12-11T15:37:21;30.98;;;23.10;;
54247;SDS011;40161;39.768;2.722;2022-12-11T15:39:50;27.02;;;21.33;;
54247;SDS011;40161;39.768;2.722;2022-12-11T15:42:26;24.00;;;18.45;;
54247;SDS011;40161;39.768;2.722;2022-12-11T15:44:55;22.98;;;18.05;;
54247;SDS011;40161;39.768;2.722;2022-12-11T15:47:25;22.00;;;16.70;;
54247;SDS011;40161;39.768;2.722;2022-12-11T15:49:54;20.52;;;16.35;;
54247;SDS011;40161;39.768;2.722;2022-12-11T15:52:22;19.27;;;16.20;;
54247;SDS011;40161;39.768;2.722;2022-12-11T15:54:48;22.02;;;16.20;;
54247;SDS011;40161;39.768;2.722;2022-12-11T15:57:15;16.48;;;12.10;;
54247;SDS011;40161;39.768;2.722;2022-12-11T15:59:43;16.95;;;13.00;;
54247;SDS011;40161;39.768;2.722;2022-12-11T16:02:12;14.40;;;11.20;;
54247;SDS011;40161;39.768;2.722;2022-12-11T16:04:39;14.50;;;10.45;;
54247;SDS011;40161;39.768;2.722;2022-12-11T16:07:05;14.25;;;10.50;;
54247;SDS011;40161;39.768;2.722;2022-12-11T16:09:40;15.73;;;11.43;;
54247;SDS011;40161;39.768;2.722;2022-12-11T16:12:07;20.70;;;15.13;;
54247;SDS011;40161;39.768;2.722;2022-12-11T16:14:34;30.95;;;19.77;;
54247;SDS011;40161;39.768;2.722;2022-12-11T16:17:04;27.48;;;19.52;;
54247;SDS011;40161;39.768;2.722;2022-12-11T16:19:31;25.90;;;17.65;;
54247;SDS011;40161;39.768;2.722;2022-12-11T16:21:57;31.70;;;22.58;;
54247;SDS011;40161;39.768;2.722;2022-12-11T16:24:23;65.10;;;46.78;;
54247;SDS011;40161;39.768;2.722;2022-12-11T16:26:50;38.70;;;32.05;;
54247;SDS011;40161;39.768;2.722;2022-12-11T16:29:15;36.55;;;30.30;;
54247;SDS011;40161;39.768;2.722;2022-12-11T16:31:42;31.48;;;26.05;;
54247;SDS011;40161;39.768;2.722;2022-12-11T16:34:08;24.50;;;19.33;;
54247;SDS011;40161;39.768;2.722;2022-12-11T16:36:33;22.10;;;16.98;;
54247;SDS011;40161;39.768;2.722;2022-12-11T16:38:59;18.08;;;14.00;;
54247;SDS011;40161;39.768;2.722;2022-12-11T16:53:13;10.27;;;7.80;;
54247;SDS011;40161;39.768;2.722;2022-12-11T16:55:41;11.85;;;8.43;;
54247;SDS011;40161;39.768;2.722;2022-12-11T16:58:07;11.65;;;9.07;;